Time;durP1;ratioP1;P1;durP2;ratioP2;P2;SDS_P1;SDS_P2;PMS_P1;PMS_P2;Temp;Humidity;BMP_temperature;BMP_pressure;BME280_temperature;BME280_humidity;BME280_pressure;Samples;Min_cycle;Max_cycle;Signal;HPM_P1;HPM_P2
2022/04/12 00:01:36;;;;;;;6.60;5.80;;;4.40;64.80;;;3.00;69.29;97940.72;5048872;28;20517;-77
2022/04/12 00:04:04;;;;;;;9.77;5.80;;;4.40;64.90;;;3.01;69.34;97945.06;5063290;28;20812;-77
2022/04/12 00:06:32;;;;;;;8.60;5.80;;;4.40;64.80;;;2.92;69.43;97925.56;5048867;28;20490;-77
2022/04/12 00:09:00;;;;;;;6.90;5.90;;;4.40;64.90;;;2.97;69.60;97931.22;5055187;28;20477;-78
2022/04/12 00:11:27;;;;;;;9.60;6.17;;;4.40;65.00;;;2.96;69.55;97934.88;5047436;28;20457;-77
2022/04/12 00:13:54;;;;;;;7.90;5.93;;;4.40;65.00;;;2.91;69.39;97931.91;5045248;28;22268;-77
2022/04/12 00:16:21;;;;;;;6.90;6.20;;;4.40;65.20;;;2.81;69.34;97921.41;5046499;28;20484;-77
2022/04/12 00:19:03;;;;;;;7.63;5.87;;;4.40;65.10;;;2.98;69.36;97938.22;5038920;28;20976;-77
2022/04/12 00:21:34;;;;;;;6.50;5.53;;;4.40;65.10;;;2.82;69.66;97909.72;5054908;28;20820;-76
2022/04/12 00:24:02;;;;;;;6.03;5.30;;;4.40;65.20;;;2.96;69.10;97918.88;5040853;28;20454;-77
2022/04/12 00:26:29;;;;;;;6.63;5.70;;;4.40;65.30;;;2.88;69.48;97918.91;5048630;28;20618;-78
2022/04/12 00:28:57;;;;;;;8.20;5.77;;;4.30;65.20;;;2.78;69.84;97891.56;5060891;28;21142;-79
2022/04/12 00:31:24;;;;;;;8.80;5.30;;;4.30;65.20;;;2.89;69.61;97914.38;5046707;28;20488;-79
2022/04/12 00:33:51;;;;;;;9.90;5.90;;;4.30;65.30;;;2.75;69.58;97887.38;5045005;28;21000;-78
2022/04/12 00:36:18;;;;;;;8.30;6.20;;;4.30;65.50;;;2.78;70.19;97903.03;5057191;28;20492;-79
2022/04/12 00:38:46;;;;;;;10.83;5.77;;;4.30;65.80;;;2.58;69.46;97869.72;5044644;28;20493;-78
2022/04/12 00:41:13;;;;;;;7.47;5.50;;;4.20;65.50;;;2.88;69.04;97910.06;5046238;28;20482;-78
2022/04/12 00:43:40;;;;;;;5.60;4.90;;;4.30;65.30;;;2.90;68.81;97908.88;5063304;28;20491;-78
2022/04/12 00:46:07;;;;;;;6.87;5.53;;;4.30;65.10;;;2.81;68.97;97913.41;5042584;28;20457;-78
2022/04/12 00:48:36;;;;;;;10.53;5.70;;;4.30;65.30;;;2.74;69.30;97912.38;5046749;28;20982;-78
2022/04/12 00:51:03;;;;;;;7.50;5.73;;;4.20;65.10;;;2.54;69.36;97912.75;5047297;28;20924;-78
2022/04/12 00:53:31;;;;;;;6.03;4.90;;;4.10;65.30;;;2.51;69.70;97901.56;5049921;28;20490;-78
2022/04/12 00:56:00;;;;;;;6.60;5.10;;;4.00;65.60;;;2.71;69.22;97909.22;5042612;28;20457;-78
2022/04/12 00:58:27;;;;;;;7.17;5.47;;;4.10;65.30;;;2.80;69.31;97910.88;5039384;28;20507;-77
2022/04/12 01:00:54;;;;;;;6.80;5.60;;;4.20;65.50;;;2.73;68.84;97888.53;5059470;28;20521;-78
2022/04/12 01:03:21;;;;;;;8.50;5.20;;;4.20;65.30;;;2.70;69.18;97905.72;5046070;28;20470;-77
2022/04/12 01:05:49;;;;;;;9.60;6.00;;;4.10;65.10;;;2.70;69.52;97900.41;5044516;28;20493;-79
2022/04/12 01:08:18;;;;;;;8.80;5.60;;;4.10;65.60;;;2.74;68.99;97901.72;5045822;28;20482;-78
2022/04/12 01:10:45;;;;;;;5.90;4.63;;;4.10;65.30;;;2.71;69.26;97902.06;5047139;28;21041;-78
2022/04/12 01:13:14;;;;;;;5.97;5.37;;;4.10;65.40;;;2.45;69.88;97884.38;5042634;28;20518;-77
2022/04/12 01:15:42;;;;;;;6.10;4.67;;;4.00;65.50;;;2.51;70.28;97902.41;5040401;28;20549;-77
2022/04/12 01:18:10;;;;;;;7.17;5.60;;;3.90;66.00;;;2.53;70.24;97900.41;5041379;28;20458;-76
2022/04/12 01:20:37;;;;;;;6.70;5.50;;;4.00;66.10;;;2.57;69.87;97910.75;5046103;28;22048;-78
2022/04/12 01:23:10;;;;;;;8.63;5.87;;;3.90;66.10;;;2.57;70.18;97908.06;5045195;28;20900;-78
2022/04/12 01:25:39;;;;;;;5.90;4.83;;;3.90;66.10;;;2.49;70.40;97912.38;5039812;28;20454;-78
2022/04/12 01:28:07;;;;;;;7.77;5.33;;;3.90;66.30;;;2.54;70.21;97918.06;5047070;28;20453;-78
2022/04/12 01:30:34;;;;;;;7.93;5.90;;;3.90;66.40;;;2.44;69.69;97890.72;5036023;28;20448;-80
2022/04/12 01:33:04;;;;;;;6.13;5.00;;;3.90;66.20;;;2.49;70.42;97908.91;5057756;28;20484;-77
2022/04/12 01:35:32;;;;;;;6.90;4.87;;;3.90;66.70;;;2.45;69.89;97913.72;5041608;28;20485;-77
2022/04/12 01:37:59;;;;;;;6.53;4.80;;;3.90;66.30;;;2.50;70.41;97922.09;5037634;28;21128;-77
2022/04/12 01:40:26;;;;;;;8.70;5.80;;;3.90;66.60;;;2.49;70.49;97922.25;5038181;28;20531;-76
2022/04/12 01:42:55;;;;;;;5.57;5.00;;;3.90;66.50;;;2.33;71.07;97921.22;5048699;28;20474;-77
2022/04/12 01:45:24;;;;;;;8.30;5.23;;;3.80;67.00;;;2.48;70.52;97913.38;5041207;28;20475;-76
2022/04/12 01:47:51;;;;;;;7.87;5.00;;;3.90;67.10;;;2.47;70.10;97922.38;5041584;28;20455;-76
2022/04/12 01:50:18;;;;;;;6.33;5.73;;;3.90;66.80;;;2.30;70.89;97902.06;5043675;28;20777;-77
2022/04/12 01:52:45;;;;;;;6.57;5.33;;;3.80;67.20;;;2.40;71.06;97908.06;5042853;28;21156;-77
2022/04/12 01:55:12;;;;;;;5.83;5.23;;;3.80;67.50;;;2.25;71.63;97911.38;5041697;28;20826;-78
2022/04/12 01:57:39;;;;;;;7.60;5.10;;;3.70;67.70;;;2.30;72.08;97902.91;5040681;28;20479;-77
2022/04/12 02:00:10;;;;;;;6.57;5.87;;;3.70;67.90;;;2.24;71.96;97907.06;5041583;28;20505;-78
2022/04/12 02:02:37;;;;;;;7.27;6.00;;;3.70;68.10;;;2.27;72.02;97903.19;5060200;28;20625;-77
2022/04/12 02:05:05;;;;;;;8.53;5.57;;;3.60;68.40;;;2.18;72.04;97891.69;5040685;28;21197;-77
2022/04/12 02:07:32;;;;;;;7.17;5.83;;;3.70;68.50;;;2.00;72.95;97912.34;5040705;28;20454;-77
2022/04/12 02:09:59;;;;;;;6.43;5.73;;;3.50;68.70;;;2.02;73.32;97899.66;5036955;28;20519;-77
2022/04/12 02:12:26;;;;;;;10.20;5.37;;;3.40;69.50;;;2.16;72.80;97891.03;5050568;28;21315;-77
2022/04/12 02:14:53;;;;;;;6.83;6.10;;;3.50;69.70;;;1.97;73.02;97862.84;5039076;28;21062;-76
2022/04/12 02:17:22;;;;;;;7.97;6.03;;;3.50;69.70;;;2.15;73.18;97897.38;5043641;28;20539;-76
2022/04/12 02:19:49;;;;;;;10.57;5.80;;;3.60;69.80;;;2.08;73.21;97899.84;5036202;28;20836;-78
2022/04/12 02:22:16;;;;;;;6.00;5.00;;;3.50;69.80;;;2.03;73.32;97893.34;5045392;28;20974;-78
2022/04/12 02:24:43;;;;;;;9.47;6.53;;;3.50;70.10;;;1.59;73.79;97828.63;5040558;28;20463;-77
2022/04/12 02:27:10;;;;;;;8.03;5.50;;;3.50;70.50;;;1.98;72.98;97892.00;5046579;28;20552;-77
2022/04/12 02:29:37;;;;;;;8.60;6.23;;;3.50;70.60;;;2.06;73.62;97893.03;5053525;28;20489;-78
2022/04/12 02:32:06;;;;;;;7.83;5.37;;;3.50;70.60;;;1.82;73.83;97879.50;5049983;28;20463;-77
2022/04/12 02:34:35;;;;;;;6.70;5.50;;;3.40;70.50;;;1.62;73.89;97833.66;5042624;28;20458;-78
2022/04/12 02:37:02;;;;;;;8.93;6.07;;;3.40;71.00;;;1.92;74.03;97882.00;5037021;28;20437;-77
2022/04/12 02:39:29;;;;;;;7.83;5.60;;;3.40;71.30;;;1.88;74.43;97882.50;5069170;28;20470;-76
2022/04/12 02:41:56;;;;;;;6.57;5.83;;;3.30;71.50;;;1.86;74.48;97889.81;5040028;28;20509;-76
2022/04/12 02:44:25;;;;;;;6.00;5.40;;;3.30;71.70;;;1.48;74.96;97842.28;5048910;28;20967;-75
2022/04/12 02:46:52;;;;;;;7.00;6.30;;;3.30;72.20;;;1.85;74.59;97888.97;5047992;28;20487;-76
2022/04/12 02:49:19;;;;;;;7.70;6.17;;;3.30;72.30;;;1.87;74.71;97888.81;5045939;28;20489;-77
2022/04/12 02:51:50;;;;;;;6.80;5.70;;;3.20;72.30;;;1.84;74.76;97884.66;5054204;28;20472;-76
2022/04/12 02:54:17;;;;;;;10.20;6.33;;;3.30;72.30;;;1.66;75.26;97874.94;5082262;28;20441;-76
2022/04/12 02:56:44;;;;;;;6.87;6.10;;;3.20;72.30;;;1.68;75.46;97880.94;5064534;28;21176;-77
2022/04/12 02:59:11;;;;;;;7.00;5.83;;;3.10;73.00;;;1.74;75.66;97883.94;5056042;28;20477;-77
2022/04/12 03:01:38;;;;;;;7.47;6.40;;;3.10;73.40;;;1.67;75.50;97881.13;5048547;28;20485;-78
2022/04/12 03:04:05;;;;;;;8.03;6.10;;;3.10;73.40;;;1.30;76.00;97829.06;5048188;28;20562;-77
2022/04/12 03:06:32;;;;;;;9.43;6.33;;;3.10;73.90;;;1.54;76.07;97879.75;5046520;28;21017;-80
2022/04/12 03:09:01;;;;;;;7.43;6.10;;;3.00;73.80;;;1.58;76.11;97888.22;5050299;28;20481;-76
2022/04/12 03:11:28;;;;;;;6.43;5.83;;;3.00;74.20;;;1.50;76.46;97888.22;5063881;28;20540;-78
2022/04/12 03:13:55;;;;;;;10.00;6.70;;;2.90;74.30;;;1.28;77.70;97890.44;5042889;28;20461;-77
2022/04/12 03:16:22;;;;;;;9.47;6.50;;;2.80;74.80;;;1.23;77.48;97898.06;5052441;28;20462;-79
2022/04/12 03:18:50;;;;;;;10.20;6.00;;;2.70;75.50;;;0.91;77.96;97857.00;5052523;28;20450;-79
2022/04/12 03:21:17;;;;;;;8.47;6.73;;;2.60;76.00;;;1.07;78.57;97888.19;5044709;28;22593;-78
2022/04/12 03:23:44;;;;;;;7.10;6.03;;;2.50;76.60;;;1.08;78.72;97880.03;5046378;28;20846;-80
2022/04/12 03:26:13;;;;;;;8.17;6.60;;;2.50;77.60;;;1.34;77.89;97883.63;5042790;28;20472;-79
2022/04/12 03:28:40;;;;;;;9.47;6.80;;;2.70;77.40;;;1.23;78.12;97892.75;5051109;28;20467;-77
2022/04/12 03:31:07;;;;;;;7.57;6.27;;;2.60;77.40;;;1.30;78.23;97899.13;5041634;28;20450;-78
2022/04/12 03:33:34;;;;;;;11.10;7.50;;;2.60;77.50;;;1.14;78.21;97878.56;5046900;28;20550;-76
2022/04/12 03:36:01;;;;;;;7.37;6.43;;;2.60;77.40;;;1.36;77.65;97890.47;5048313;28;20474;-78
2022/04/12 03:38:28;;;;;;;8.37;6.70;;;2.70;77.70;;;1.24;78.30;97881.94;5050484;28;20455;-77
2022/04/12 03:40:58;;;;;;;7.60;6.80;;;2.80;77.40;;;1.30;78.17;97899.13;5037998;28;20544;-80
2022/04/12 03:43:27;;;;;;;7.17;6.47;;;2.70;77.70;;;1.20;78.37;97883.25;5040362;28;20457;-78
2022/04/12 03:45:54;;;;;;;9.03;7.53;;;2.70;77.60;;;1.37;78.04;97902.81;5046671;28;20592;-79
2022/04/12 03:48:21;;;;;;;7.87;6.17;;;2.80;77.70;;;1.38;77.84;97901.81;5050600;28;20476;-78
2022/04/12 03:50:48;;;;;;;7.20;6.50;;;2.80;77.50;;;1.04;77.83;97852.06;5049407;28;20489;-79
2022/04/12 03:53:15;;;;;;;7.47;6.77;;;2.80;77.30;;;1.13;77.96;97877.72;5044343;28;20540;-79
2022/04/12 03:55:46;;;;;;;7.77;6.23;;;2.80;77.50;;;1.17;78.94;97907.53;5040156;28;20487;-78
2022/04/12 03:58:19;;;;;;;8.60;6.87;;;2.60;78.00;;;1.02;79.63;97911.75;5055396;28;20880;-77
2022/04/12 04:00:47;;;;;;;8.83;6.97;;;2.50;78.50;;;1.04;79.24;97904.44;5054583;28;20481;-77
2022/04/12 04:03:15;;;;;;;10.80;7.33;;;2.50;79.10;;;1.00;79.25;97903.94;5053018;28;20455;-78
2022/04/12 04:05:42;;;;;;;7.97;6.47;;;2.50;79.40;;;1.09;79.58;97900.31;5050266;28;20874;-77
2022/04/12 04:08:09;;;;;;;7.80;6.97;;;2.50;79.50;;;1.17;79.11;97894.22;5041930;28;20447;-79
2022/04/12 04:10:36;;;;;;;9.20;7.57;;;2.50;79.20;;;1.17;79.06;97888.88;5045948;28;20460;-78
2022/04/12 04:13:08;;;;;;;11.87;7.53;;;2.60;78.90;;;1.07;78.99;97867.72;5049039;28;20504;-78
2022/04/12 04:15:37;;;;;;;7.80;7.00;;;2.60;79.00;;;1.31;78.47;97889.28;5060312;28;20447;-79
2022/04/12 04:18:05;;;;;;;7.67;6.97;;;2.70;78.50;;;1.31;78.75;97892.81;5042892;28;20449;-78
2022/04/12 04:20:32;;;;;;;7.27;6.53;;;2.70;78.60;;;1.32;78.60;97889.13;5039116;28;20549;-78
2022/04/12 04:22:59;;;;;;;9.37;6.87;;;2.70;78.40;;;1.13;78.21;97877.72;5043263;28;20483;-76
2022/04/12 04:25:27;;;;;;;8.30;6.70;;;2.70;78.10;;;1.03;78.65;97860.19;5041842;28;22065;-77
2022/04/12 04:27:54;;;;;;;12.63;7.33;;;2.70;78.40;;;1.12;79.12;97885.88;5040758;28;20461;-77
2022/04/12 04:30:21;;;;;;;7.30;6.43;;;2.60;78.30;;;1.10;79.12;97883.38;5043552;28;20982;-77
2022/04/12 04:32:49;;;;;;;7.67;6.40;;;2.60;78.80;;;1.00;79.30;97880.00;5055590;28;20460;-77
2022/04/12 04:35:18;;;;;;;7.80;5.70;;;2.60;78.60;;;1.13;78.96;97880.38;5049702;28;20568;-78
2022/04/12 04:37:47;;;;;;;8.43;7.27;;;2.60;79.20;;;1.27;78.04;97886.09;5042333;28;20534;-77
2022/04/12 04:40:17;;;;;;;10.20;6.87;;;2.70;78.50;;;1.42;77.56;97881.03;5039917;28;20543;-77
2022/04/12 04:42:45;;;;;;;9.10;7.17;;;2.80;78.00;;;1.44;77.16;97867.53;5043810;28;20537;-75
2022/04/12 04:45:12;;;;;;;9.30;6.70;;;2.90;77.20;;;1.54;76.60;97879.75;5050999;28;20531;-75
2022/04/12 04:47:50;;;;;;;8.30;5.83;;;3.00;76.60;;;1.61;75.72;97879.94;5054471;28;20449;-76
2022/04/12 04:50:20;;;;;;;7.80;6.30;;;3.10;75.80;;;1.46;74.80;97807.00;5048499;28;20955;-75
2022/04/12 04:52:48;;;;;;;7.07;6.20;;;3.40;75.30;;;2.26;73.26;97882.88;5043121;28;20467;-72
2022/04/12 04:55:16;;;;;;;7.87;5.70;;;3.70;73.90;;;2.55;72.01;97887.72;5042439;28;20992;-75
2022/04/12 04:57:45;;;;;;;6.50;5.87;;;4.10;72.80;;;2.75;70.91;97882.03;5049502;28;20528;-79
2022/04/12 05:00:15;;;;;;;5.97;5.37;;;4.40;71.20;;;3.17;69.27;97879.28;5039681;28;20519;-79
2022/04/12 05:02:44;;;;;;;8.17;5.87;;;4.80;70.00;;;3.82;66.69;97880.03;5043533;28;20456;-82
2022/04/12 05:05:11;;;;;;;9.30;5.43;;;5.40;68.60;;;4.48;64.66;97887.63;5050200;28;21180;-81
2022/04/12 05:07:40;;;;;;;6.50;5.50;;;6.00;66.10;;;4.46;63.14;97849.50;5042818;28;20465;-74
2022/04/12 05:10:09;;;;;;;6.50;5.30;;;6.50;64.30;;;5.25;60.85;97877.66;5044528;28;20557;-75
2022/04/12 05:12:36;;;;;;;9.57;5.57;;;7.10;62.30;;;5.16;60.93;97888.66;5042859;28;20462;-76
2022/04/12 05:15:04;;;;;;;5.40;4.87;;;7.20;61.00;;;4.75;61.43;97882.69;5038431;28;22598;-74
2022/04/12 05:17:31;;;;;;;7.40;5.60;;;6.80;61.00;;;4.43;62.69;97894.53;5045575;28;20532;-77
2022/04/12 05:19:58;;;;;;;6.33;5.60;;;6.30;61.50;;;4.11;63.59;97875.84;5048734;28;20559;-74
2022/04/12 05:22:27;;;;;;;6.97;4.90;;;6.10;62.00;;;4.51;63.99;97883.72;5043034;28;20456;-74
2022/04/12 05:24:58;;;;;;;7.10;5.50;;;6.30;62.60;;;5.04;63.19;97888.28;5061441;28;21194;-79
2022/04/12 05:27:25;;;;;;;5.67;4.40;;;6.70;62.80;;;5.85;59.22;97892.88;5046106;28;20527;-77
2022/04/12 05:29:51;;;;;;;5.50;5.00;;;7.50;60.30;;;5.89;57.96;97894.16;5043578;28;20458;-78
2022/04/12 05:32:18;;;;;;;5.23;4.77;;;7.70;59.30;;;6.11;58.03;97891.53;5051445;28;20473;-80
2022/04/12 05:34:46;;;;;;;11.03;5.20;;;7.90;58.90;;;6.37;57.82;97892.84;5043364;28;20554;-78
2022/04/12 05:37:13;;;;;;;9.10;5.50;;;8.20;58.00;;;5.77;57.69;97839.34;5050868;28;20462;-80
2022/04/12 05:39:40;;;;;;;6.70;4.90;;;8.20;57.30;;;5.63;58.38;97903.53;5052146;28;20463;-81
2022/04/12 05:42:09;;;;;;;5.87;5.23;;;7.70;57.30;;;5.00;61.14;97897.69;5052865;28;20586;-81
2022/04/12 05:44:36;;;;;;;8.57;6.00;;;7.00;59.70;;;4.50;62.14;97912.34;5059330;28;20453;-79
2022/04/12 05:47:04;;;;;;;10.27;5.07;;;6.30;59.60;;;4.58;63.03;97907.94;5062603;28;20456;-80
2022/04/12 05:49:32;;;;;;;9.30;4.50;;;6.20;61.60;;;4.63;63.40;97905.56;5068033;28;20486;-81
2022/04/12 05:51:59;;;;;;;8.37;4.90;;;6.10;61.60;;;4.37;62.48;97869.31;5060986;28;20590;-80
2022/04/12 05:54:26;;;;;;;7.83;5.50;;;6.10;61.40;;;4.71;63.54;97902.81;5052622;28;20480;-78
2022/04/12 05:56:53;;;;;;;5.63;5.13;;;6.20;61.90;;;4.79;62.48;97916.13;5053491;28;20456;-78
2022/04/12 05:59:22;;;;;;;6.67;5.50;;;6.20;61.40;;;4.85;61.48;97905.72;5053601;28;20487;-82
2022/04/12 06:01:50;;;;;;;6.90;6.20;;;6.30;60.80;;;4.96;61.21;97918.66;5058023;28;20506;-82
2022/04/12 06:04:17;;;;;;;6.90;6.17;;;6.50;60.60;;;4.80;61.15;97925.81;5055944;28;20465;-81
2022/04/12 06:06:44;;;;;;;8.70;5.90;;;6.40;60.10;;;5.09;60.60;97932.25;5066511;28;20517;-79
2022/04/12 06:09:11;;;;;;;8.33;6.23;;;6.50;60.50;;;5.24;60.21;97918.06;5052404;28;20491;-82
2022/04/12 06:11:38;;;;;;;7.83;5.30;;;6.70;60.20;;;5.20;60.34;97927.44;5047621;28;21031;-83
2022/04/12 06:14:05;;;;;;;6.67;5.30;;;6.70;59.40;;;5.62;60.05;97938.59;5033476;28;20492;-83
2022/04/12 06:16:33;;;;;;;7.87;5.20;;;6.90;60.30;;;6.02;58.49;97932.91;5043398;28;21051;-81
2022/04/12 06:19:00;;;;;;;6.63;5.00;;;7.20;59.30;;;6.40;56.88;97931.88;5040969;28;20492;-82
2022/04/12 06:21:27;;;;;;;7.30;5.10;;;7.60;58.80;;;6.57;55.72;97933.31;5047697;28;20544;-81
2022/04/12 06:23:54;;;;;;;5.37;4.70;;;7.70;57.70;;;6.86;55.20;97933.34;5050701;28;20536;-81
2022/04/12 06:26:22;;;;;;;7.90;5.67;;;8.00;57.40;;;6.74;55.13;97923.09;5049115;28;20485;-82
2022/04/12 06:28:49;;;;;;;6.40;5.00;;;8.10;57.40;;;6.69;55.30;97936.28;5052819;28;20578;-83
2022/04/12 06:31:16;;;;;;;6.47;5.10;;;8.20;56.80;;;6.87;54.78;97924.25;5051106;28;20462;-81
2022/04/12 06:33:44;;;;;;;8.00;5.43;;;8.30;56.40;;;6.86;54.84;97941.41;5050159;28;20908;-82
2022/04/12 06:36:11;;;;;;;9.07;5.50;;;8.20;56.30;;;6.85;54.96;97918.25;5047711;28;20510;-81
2022/04/12 06:38:38;;;;;;;7.30;5.10;;;8.30;56.30;;;6.72;55.09;97925.16;5047666;28;20513;-81
2022/04/12 06:41:05;;;;;;;5.73;4.87;;;8.30;55.90;;;6.68;54.53;97920.41;5018617;28;20471;-82
2022/04/12 06:43:32;;;;;;;10.70;5.53;;;8.20;55.50;;;6.67;54.90;97932.97;5047540;28;20469;-79
2022/04/12 06:45:59;;;;;;;7.77;5.10;;;8.10;55.70;;;6.47;55.58;97930.09;5048787;28;20488;-81
2022/04/12 06:48:26;;;;;;;6.50;5.20;;;8.00;55.70;;;6.69;55.16;97932.78;5050542;28;20525;-80
2022/04/12 06:50:55;;;;;;;6.30;4.90;;;8.10;55.80;;;6.68;55.02;97929.25;5049274;28;20854;-82
2022/04/12 06:53:23;;;;;;;5.77;5.27;;;8.10;55.60;;;6.79;54.49;97925.22;5059120;28;20515;-83
2022/04/12 06:55:50;;;;;;;5.50;5.00;;;8.20;55.40;;;7.08;53.91;97932.28;5038057;28;20452;-80
2022/04/12 06:58:17;;;;;;;8.80;5.70;;;8.40;55.40;;;7.12;53.71;97921.97;5046363;28;20996;-81
2022/04/12 07:00:44;;;;;;;9.50;5.93;;;8.50;54.90;;;7.15;53.28;97888.50;5043439;28;20480;-81
2022/04/12 07:03:12;;;;;;;7.93;5.17;;;8.70;54.90;;;7.47;52.77;97892.44;5049151;28;20456;-81
2022/04/12 07:05:39;;;;;;;14.73;5.00;;;8.90;54.40;;;7.64;51.52;97906.38;5039895;28;20512;-82
2022/04/12 07:08:08;;;;;;;6.97;4.60;;;8.90;53.70;;;7.93;51.22;97893.66;5050387;28;20481;-81
2022/04/12 07:10:35;;;;;;;5.00;4.43;;;9.10;53.90;;;8.33;50.69;97897.50;5049858;28;20479;-83
2022/04/12 07:13:02;;;;;;;9.33;5.33;;;9.50;53.90;;;8.26;50.88;97897.50;5063668;28;20450;-81
2022/04/12 07:15:29;;;;;;;9.70;4.90;;;9.60;53.40;;;8.45;50.34;97903.97;5058827;28;20546;-79
2022/04/12 07:17:56;;;;;;;6.53;4.93;;;9.70;53.30;;;8.68;50.47;97900.06;5067156;28;20452;-76
2022/04/12 07:20:23;;;;;;;6.87;5.00;;;9.90;53.10;;;9.06;48.85;97912.94;5066347;28;20480;-77
2022/04/12 07:22:50;;;;;;;9.05;5.40;;;10.20;51.50;;;9.17;48.54;97916.03;5076977;28;20551;-78
2022/04/12 07:25:19;;;;;;;6.90;4.70;;;10.40;51.40;;;9.03;48.24;97918.75;5061611;28;20214;-74
2022/04/12 07:27:47;;;;;;;4.93;4.40;;;10.40;51.00;;;9.20;48.34;97924.53;5061860;28;20471;-81
2022/04/12 07:30:15;;;;;;;5.37;4.50;;;10.50;51.00;;;9.51;47.87;97887.16;5058397;28;20701;-81
2022/04/12 07:32:41;;;;;;;8.20;4.83;;;10.80;51.00;;;9.85;47.58;97914.00;5053753;28;20457;-77
2022/04/12 07:35:10;;;;;;;5.60;4.13;;;11.00;50.30;;;9.93;46.63;97905.69;5042066;28;20472;-78
2022/04/12 07:37:37;;;;;;;6.50;3.50;;;11.20;50.40;;;10.14;45.91;97901.00;5039913;28;20480;-82
2022/04/12 07:40:06;;;;;;;5.40;3.27;;;11.40;49.60;;;9.93;46.12;97900.28;5042451;28;20503;-81
2022/04/12 07:42:34;;;;;;;3.40;3.10;;;11.20;49.10;;;10.46;45.31;97903.75;5047552;28;20457;-80
2022/04/12 07:45:01;;;;;;;3.43;3.13;;;11.60;49.00;;;10.54;44.59;97900.81;5064060;28;21526;-78
2022/04/12 07:47:29;;;;;;;5.63;2.70;;;11.70;48.60;;;10.79;43.80;97896.47;5069438;28;21163;-80
2022/04/12 07:49:56;;;;;;;6.30;3.40;;;11.90;47.80;;;10.76;43.13;97898.56;5059378;28;20456;-79
2022/04/12 07:52:23;;;;;;;3.20;2.40;;;12.00;47.60;;;10.88;42.79;97885.16;5062580;28;20540;-80
2022/04/12 07:54:50;;;;;;;3.40;2.50;;;12.10;47.20;;;10.94;42.92;97910.50;5042178;28;20537;-79
2022/04/12 07:57:17;;;;;;;2.70;2.30;;;12.10;47.00;;;11.12;42.31;97903.47;5048386;28;20453;-83
2022/04/12 07:59:46;;;;;;;4.10;2.33;;;12.20;46.70;;;11.41;42.26;97888.44;5055680;28;20460;-74
2022/04/12 08:02:13;;;;;;;2.97;2.43;;;12.50;46.80;;;11.26;42.28;97886.09;5047630;28;20557;-84
2022/04/12 08:04:41;;;;;;;2.80;2.00;;;12.50;46.40;;;11.34;42.40;97891.22;5045260;28;20501;-75
2022/04/12 08:07:08;;;;;;;2.70;2.10;;;12.50;46.60;;;11.70;41.97;97885.22;5061053;28;20453;-81
2022/04/12 08:09:35;;;;;;;4.17;2.83;;;12.70;46.40;;;11.67;41.50;97888.38;5054354;28;20454;-80
2022/04/12 08:12:04;;;;;;;2.73;2.00;;;12.90;45.80;;;11.69;40.83;97875.44;5044087;28;20548;-79
2022/04/12 08:14:31;;;;;;;3.53;2.00;;;12.90;45.50;;;11.76;40.97;97879.72;5051953;28;20458;-79
2022/04/12 08:17:00;;;;;;;4.37;2.23;;;13.00;45.50;;;12.15;40.48;97889.50;5069830;28;20527;-77
2022/04/12 08:19:27;;;;;;;2.43;1.93;;;13.20;45.50;;;12.26;39.66;97882.47;5054078;28;20459;-81
2022/04/12 08:21:54;;;;;;;1.97;1.60;;;13.40;45.10;;;12.10;39.69;97884.75;5048940;28;20520;-81
2022/04/12 08:24:21;;;;;;;2.50;2.30;;;13.40;44.60;;;12.49;39.47;97897.97;5063699;28;20562;-81
2022/04/12 08:26:49;;;;;;;3.90;1.90;;;13.50;44.70;;;12.53;39.00;97896.44;5053350;28;21017;-81
2022/04/12 08:29:16;;;;;;;3.43;2.00;;;13.60;44.40;;;12.84;38.32;97896.41;5053690;28;20445;-85
2022/04/12 08:31:43;;;;;;;3.27;1.83;;;13.80;44.10;;;12.61;38.72;97890.72;5048083;28;20820;-82
2022/04/12 08:34:11;;;;;;;3.47;2.20;;;13.80;43.90;;;12.52;38.64;97885.84;5048821;28;20829;-82
2022/04/12 08:36:38;;;;;;;4.43;2.20;;;13.70;43.60;;;12.91;38.26;97877.34;5049262;28;20511;-82
2022/04/12 08:39:05;;;;;;;3.20;2.00;;;13.90;43.90;;;12.97;37.37;97871.81;5041046;28;20561;-82
2022/04/12 08:41:35;;;;;;;3.87;2.17;;;14.10;43.10;;;12.99;36.73;97869.69;5054371;28;20505;-85
2022/04/12 08:44:03;;;;;;;2.50;2.20;;;14.10;42.60;;;12.71;37.28;97879.31;5056318;28;20500;-75
2022/04/12 08:46:30;;;;;;;2.87;2.20;;;13.90;42.40;;;12.73;37.34;97877.19;5059189;28;20460;-83
2022/04/12 08:48:58;;;;;;;4.07;2.20;;;13.90;42.50;;;12.71;36.95;97865.75;5054379;28;20465;-77
2022/04/12 08:51:28;;;;;;;2.90;2.60;;;13.90;42.00;;;12.69;36.49;97858.91;5044108;28;20519;-85
2022/04/12 08:53:58;;;;;;;3.57;2.00;;;13.80;41.80;;;12.61;36.97;97862.78;5047772;28;20937;-77
2022/04/12 08:56:27;;;;;;;3.10;2.10;;;13.80;41.90;;;12.68;36.53;97858.09;5049827;28;20498;-86
2022/04/12 08:58:55;;;;;;;4.50;1.70;;;13.80;42.00;;;12.85;36.49;97858.22;5056606;28;20623;-83
2022/04/12 09:01:22;;;;;;;2.40;1.97;;;13.90;42.10;;;13.00;35.91;97848.78;5055201;28;20477;-80
2022/04/12 09:03:49;;;;;;;2.67;2.07;;;14.00;41.50;;;13.09;36.21;97854.69;5048788;28;20458;-84
2022/04/12 09:06:16;;;;;;;2.60;2.07;;;14.10;41.70;;;13.25;36.04;97850.44;5048872;28;20645;-85
2022/04/12 09:08:45;;;;;;;3.80;1.70;;;14.30;41.60;;;13.36;35.76;97846.91;5050857;28;20548;-81
2022/04/12 09:11:14;;;;;;;1.90;1.70;;;14.40;41.30;;;13.39;35.15;97845.59;5043723;28;20467;-81
2022/04/12 09:13:58;;;;;;;2.50;1.53;;;14.50;41.10;;;13.38;35.27;97843.94;5059937;28;20459;-81
2022/04/12 09:16:25;;;;;;;1.97;1.77;;;14.50;40.90;;;13.72;34.71;97846.84;5049652;28;20487;-85
2022/04/12 09:18:52;;;;;;;4.43;1.77;;;14.70;40.90;;;13.82;34.92;97849.78;5049369;28;20992;-79
2022/04/12 09:21:21;;;;;;;2.30;2.10;;;14.80;40.90;;;13.87;34.70;97841.72;5044405;28;20845;-83
2022/04/12 09:23:52;;;;;;;2.20;1.57;;;14.90;40.90;;;13.85;34.67;97843.84;5044279;28;20516;-75
2022/04/12 09:26:27;;;;;;;1.93;1.70;;;14.90;40.80;;;13.83;34.98;97846.00;5040309;28;20566;-75
2022/04/12 09:28:57;;;;;;;2.80;2.23;;;14.90;41.00;;;13.86;34.56;97842.78;5035751;28;20837;-74
2022/04/12 09:31:24;;;;;;;2.03;1.70;;;14.90;40.40;;;13.96;35.09;97839.47;5045537;28;20782;-75
2022/04/12 09:33:55;;;;;;;2.47;1.90;;;15.00;40.90;;;13.92;35.07;97826.63;5050390;28;20463;-75
2022/04/12 09:36:23;;;;;;;2.80;1.97;;;15.00;40.80;;;13.87;35.35;97830.06;5037656;28;20456;-74
2022/04/12 09:38:59;;;;;;;2.10;1.60;;;15.00;40.90;;;14.14;34.60;97827.56;5042472;28;21034;-76
2022/04/12 09:41:28;;;;;;;2.40;2.17;;;15.20;40.70;;;14.26;34.45;97818.53;5036867;28;20492;-75
2022/04/12 09:43:57;;;;;;;3.30;1.87;;;15.30;40.60;;;14.05;34.17;97826.34;5058511;28;20884;-74
2022/04/12 09:46:26;;;;;;;3.57;2.10;;;15.20;40.20;;;14.03;34.75;97823.84;5036587;28;20473;-78
2022/04/12 09:48:53;;;;;;;1.70;1.47;;;15.20;40.20;;;13.89;33.45;97819.78;5045526;28;20567;-78
2022/04/12 09:51:24;;;;;;;3.07;1.80;;;15.10;39.40;;;14.21;33.50;97824.72;5040819;28;20691;-77
2022/04/12 09:53:53;;;;;;;3.50;2.17;;;15.20;39.80;;;14.24;33.42;97826.13;5042160;28;20460;-80
2022/04/12 09:56:23;;;;;;;2.90;1.97;;;15.20;39.60;;;14.21;33.75;97821.19;5058990;28;20560;-78
2022/04/12 09:58:54;;;;;;;2.90;1.77;;;15.30;39.60;;;14.32;33.89;97814.84;5043729;28;20555;-78
2022/04/12 10:01:22;;;;;;;2.93;1.53;;;15.30;39.80;;;14.48;33.53;97817.81;5043751;28;20483;-79
2022/04/12 10:03:51;;;;;;;5.83;1.73;;;15.50;40.00;;;14.62;33.13;97796.59;5047422;28;20471;-77
2022/04/12 10:06:21;;;;;;;2.50;1.80;;;15.70;40.00;;;14.56;33.90;97809.28;5037993;28;21038;-75
2022/04/12 10:08:55;;;;;;;1.93;1.83;;;15.60;39.80;;;15.05;33.03;97813.31;5054909;28;20477;-80
2022/04/12 10:11:23;;;;;;;3.20;1.70;;;15.90;40.00;;;15.25;33.02;97821.78;5042115;28;21051;-80
2022/04/12 10:13:51;;;;;;;3.17;1.53;;;16.20;39.80;;;15.58;32.13;97811.03;5048947;28;20479;-81
2022/04/12 10:16:21;;;;;;;2.37;2.17;;;16.40;39.80;;;15.62;31.89;97808.63;5040414;28;21367;-76
2022/04/12 10:18:48;;;;;;;1.50;1.40;;;16.60;39.50;;;15.63;32.13;97811.13;5045828;28;20967;-69
2022/04/12 10:21:16;;;;;;;3.73;1.93;;;16.60;39.30;;;15.80;31.85;97819.19;5042510;28;20465;-79
2022/04/12 10:23:48;;;;;;;2.63;1.93;;;16.80;39.50;;;15.93;31.50;97804.41;5044382;28;20482;-76
2022/04/12 10:26:21;;;;;;;1.83;1.40;;;16.90;39.20;;;15.57;31.16;97817.56;5049134;28;20533;-77
2022/04/12 10:28:52;;;;;;;1.90;1.63;;;16.70;38.70;;;15.85;31.23;97807.53;5048186;28;20856;-70
2022/04/12 10:31:25;;;;;;;2.73;1.80;;;16.70;38.70;;;15.89;30.22;97794.25;5046095;28;20457;-78